Time;durP1;ratioP1;P1;durP2;ratioP2;P2;SDS_P1;SDS_P2;PMS_P1;PMS_P2;Temp;Humidity;BMP_temperature;BMP_pressure;BME280_temperature;BME280_humidity;BME280_pressure;Samples;Min_cycle;Max_cycle;Signal;HPM_P1;HPM_P2
2022/03/20 00:01:38;;;;;;;24.83;14.53;;;;;;;-2.97;100.00;-23730.75;5093046;28;20175;-74
2022/03/20 00:04:03;;;;;;;25.03;14.60;;;;;;;-3.26;100.00;-23722.69;5093148;28;20628;-74
2022/03/20 00:06:29;;;;;;;24.83;14.17;;;;;;;-2.65;100.00;-23739.94;5092854;28;20598;-74
2022/03/20 00:08:55;;;;;;;23.43;13.50;;;;;;;-2.90;100.00;-23732.91;5092811;28;20648;-73
2022/03/20 00:11:21;;;;;;;23.47;14.33;;;;;;;-3.34;100.00;-23720.38;5092616;28;20284;-74
2022/03/20 00:13:46;;;;;;;26.90;14.47;;;;;;;-3.58;100.00;-23713.63;5092828;28;20732;-74
2022/03/20 00:16:13;;;;;;;27.20;14.60;;;;;;;-3.41;100.00;-23718.38;5092534;28;20177;-73
2022/03/20 00:18:39;;;;;;;25.27;13.77;;;;;;;-3.63;100.00;-23712.03;5093090;28;20183;-74
2022/03/20 00:21:04;;;;;;;23.47;14.40;;;;;;;-3.28;100.00;-23721.97;5092813;28;20263;-74
2022/03/20 00:23:30;;;;;;;28.17;14.57;;;;;;;-3.80;100.00;-23707.31;5074780;28;20177;-75
2022/03/20 00:25:56;;;;;;;26.23;15.10;;;;;;;-3.81;100.00;-23707.00;5091845;28;20665;-73
2022/03/20 00:28:23;;;;;;;26.50;15.13;;;;;;;-3.51;100.00;-23715.50;5092473;28;20196;-72
2022/03/20 00:30:50;;;;;;;25.20;13.87;;;;;;;-3.14;100.00;-23726.00;5078415;28;20209;-73
2022/03/20 00:33:16;;;;;;;29.03;15.40;;;;;;;-3.48;100.00;-23716.38;5072931;28;20174;-73
2022/03/20 00:35:42;;;;;;;30.50;14.17;;;;;;;-3.66;100.00;-23711.19;5091268;28;20560;-73
2022/03/20 00:38:08;;;;;;;25.57;14.03;;;;;;;-3.24;100.00;-23723.13;5092624;28;20172;-73
2022/03/20 00:40:34;;;;;;;23.00;13.73;;;;;;;-3.34;100.00;-23720.38;5092326;28;20173;-73
2022/03/20 00:43:01;;;;;;;21.73;13.30;;;;;;;-3.15;100.00;-23725.72;5092108;28;20169;-74
2022/03/20 00:45:28;;;;;;;23.63;13.50;;;;;;;-3.27;100.00;-23722.41;5074587;28;20174;-72
2022/03/20 00:47:54;;;;;;;24.27;13.67;;;;;;;-3.58;100.00;-23713.63;5091673;28;20162;-73
2022/03/20 00:50:20;;;;;;;22.33;13.20;;;;;;;-3.54;100.00;-23714.63;5092105;28;20586;-74
2022/03/20 00:52:46;;;;;;;25.23;14.00;;;;;;;-3.09;100.00;-23727.44;5092607;28;20260;-72
2022/03/20 00:55:11;;;;;;;23.33;14.00;;;;;;;-3.43;100.00;-23717.81;5091887;28;20261;-73
2022/03/20 00:57:37;;;;;;;27.43;14.57;;;;;;;-3.56;100.00;-23714.19;5091926;28;20201;-74
2022/03/20 01:00:04;;;;;;;26.20;13.80;;;;;;;-4.06;100.00;-23699.81;5092586;28;20177;-73
2022/03/20 01:02:39;;;;;;;29.77;14.83;;;;;;;-3.77;100.00;-23708.00;5072924;28;20230;-73
2022/03/20 01:05:05;;;;;;;28.57;15.47;;;;;;;-4.19;100.00;-23696.22;5091895;28;20299;-74
2022/03/20 01:07:30;;;;;;;28.70;16.07;;;;;;;-4.49;100.00;-23687.72;5072646;28;20330;-73
2022/03/20 01:09:56;;;;;;;28.80;14.63;;;;;;;-4.32;100.00;-23692.31;5075591;28;20688;-74
2022/03/20 01:12:21;;;;;;;31.07;16.77;;;;;;;-4.51;100.00;-23687.16;5091610;28;20204;-74
2022/03/20 01:14:47;;;;;;;31.60;16.90;;;;;;;-4.37;100.00;-23690.88;5073915;28;20181;-73
2022/03/20 01:17:12;;;;;;;29.30;16.20;;;;;;;-3.95;100.00;-23702.97;5073782;28;20195;-74
2022/03/20 01:19:38;;;;;;;28.93;16.27;;;;;;;-4.10;100.00;-23698.66;5091798;28;20209;-74
2022/03/20 01:22:04;;;;;;;27.60;14.97;;;;;;;-4.44;100.00;-23688.88;5091514;28;20180;-74
2022/03/20 01:24:29;;;;;;;27.07;15.70;;;;;;;-4.36;100.00;-23691.31;5091834;28;20177;-74
2022/03/20 01:26:55;;;;;;;27.93;15.13;;;;;;;-4.49;100.00;-23687.56;5091632;28;20602;-74
2022/03/20 01:29:21;;;;;;;26.37;14.37;;;;;;;-4.54;100.00;-23686.28;5091875;28;20664;-73
2022/03/20 01:31:47;;;;;;;25.83;15.13;;;;;;;-4.08;100.00;-23699.25;5091949;28;20289;-74
2022/03/20 01:34:13;;;;;;;27.50;15.07;;;;;;;-4.14;100.00;-23697.50;5091747;28;20180;-75
2022/03/20 01:36:38;;;;;;;28.67;15.33;;;;;;;-4.66;100.00;-23682.69;5091860;28;20193;-74
2022/03/20 01:39:04;;;;;;;27.43;14.83;;;;;;;-4.29;100.00;-23693.34;5090976;28;20186;-74
2022/03/20 01:41:30;;;;;;;29.87;16.43;;;;;;;-4.17;100.00;-23696.78;5088929;28;20249;-72
2022/03/20 01:43:59;;;;;;;32.77;16.07;;;;;;;-4.09;100.00;-23698.94;5071873;28;20174;-74
2022/03/20 01:46:25;;;;;;;28.07;15.57;;;;;;;-4.52;100.00;-23686.72;5079066;28;20266;-73
2022/03/20 01:48:51;;;;;;;34.40;17.33;;;;;;;-4.44;100.00;-23688.88;5091607;28;20177;-73
2022/03/20 01:51:18;;;;;;;32.90;16.93;;;;;;;-4.26;100.00;-23694.06;5090843;28;20201;-74
2022/03/20 01:53:44;;;;;;;32.20;17.23;;;;;;;-4.12;100.00;-23698.22;5090854;28;20637;-74
2022/03/20 01:56:10;;;;;;;32.87;17.73;;;;;;;-4.07;100.00;-23699.66;5090892;28;20180;-73
2022/03/20 01:58:36;;;;;;;33.67;17.40;;;;;;;-4.05;100.00;-23700.09;5091043;28;20169;-74
2022/03/20 02:01:03;;;;;;;29.40;17.47;;;;;;;-4.71;100.00;-23681.38;5095122;28;20166;-74
2022/03/20 02:03:29;;;;;;;31.33;17.87;;;;;;;-4.62;100.00;-23683.97;5076797;28;20202;-74
2022/03/20 02:05:55;;;;;;;37.27;17.23;;;;;;;-4.46;100.00;-23688.59;5094890;28;20728;-74
2022/03/20 02:08:25;;;;;;;33.23;17.77;;;;;;;-4.44;100.00;-23689.03;5095131;28;20166;-74
2022/03/20 02:10:54;;;;;;;33.83;17.77;;;;;;;-4.70;100.00;-23681.66;5073151;28;20258;-74
2022/03/20 02:13:22;;;;;;;34.77;17.13;;;;;;;-4.24;100.00;-23694.63;5074063;28;20190;-74
2022/03/20 02:15:49;;;;;;;34.53;17.80;;;;;;;-4.21;100.00;-23695.66;5067346;28;20580;-74
2022/03/20 02:18:15;;;;;;;32.77;17.10;;;;;;;-4.06;100.00;-23699.97;5061573;28;20217;-74
2022/03/20 02:20:45;;;;;;;34.57;17.73;;;;;;;-4.55;100.00;-23686.00;5073092;28;20200;-73
2022/03/20 02:23:11;;;;;;;35.03;17.43;;;;;;;-4.08;100.00;-23699.25;5060124;28;20645;-74
2022/03/20 02:25:46;;;;;;;38.63;17.80;;;;;;;-4.06;100.00;-23699.97;5053040;28;20185;-73
2022/03/20 02:28:11;;;;;;;32.20;18.17;;;;;;;-4.00;100.00;-23701.53;5054908;28;20193;-73
2022/03/20 02:30:37;;;;;;;31.63;17.20;;;;;;;-4.15;100.00;-23697.38;5054903;28;20203;-73
2022/03/20 02:33:02;;;;;;;34.93;17.50;;;;;;;-4.05;100.00;-23700.09;5054520;28;20236;-73
2022/03/20 02:35:31;;;;;;;33.70;17.80;;;;;;;-4.62;100.00;-23683.97;5054304;28;20183;-73
2022/03/20 02:37:57;;;;;;;38.73;18.20;;;;;;;-4.55;100.00;-23685.84;5054598;28;20178;-73
2022/03/20 02:40:23;;;;;;;36.43;18.30;;;;;;;-4.77;100.00;-23679.50;5054905;28;20185;-74
2022/03/20 02:42:51;;;;;;;32.70;18.70;;;;;;;-4.74;100.00;-23680.38;5054586;28;20247;-73
2022/03/20 02:45:23;;;;;;;40.17;19.43;;;;;;;-4.17;100.00;-23696.66;5054523;28;20575;-73
2022/03/20 02:47:51;;;;;;;40.90;19.47;;;;;;;-4.11;100.00;-23698.50;5054639;28;20622;-74
2022/03/20 02:50:22;;;;;;;35.57;19.10;;;;;;;-4.05;100.00;-23700.09;5063724;28;20265;-74
2022/03/20 02:52:48;;;;;;;38.17;18.43;;;;;;;-4.52;100.00;-23686.72;5060714;28;20190;-74
2022/03/20 02:55:17;;;;;;;41.33;19.50;;;;;;;-4.55;100.00;-23685.84;5070552;28;20319;-74
2022/03/20 02:57:44;;;;;;;36.50;19.23;;;;;;;-4.47;100.00;-23688.28;5072424;28;20546;-73
2022/03/20 03:00:10;;;;;;;38.43;19.53;;;;;;;-4.26;100.00;-23694.19;5054026;28;20273;-74
2022/03/20 03:02:44;;;;;;;36.70;19.70;;;;;;;-4.00;100.00;-23701.53;5054369;28;20182;-73
2022/03/20 03:05:14;;;;;;;33.23;18.23;;;;;;;-4.21;100.00;-23695.50;5053781;28;20187;-74
2022/03/20 03:13:11;;;;;;;35.10;17.10;;;;;;;-4.21;100.00;-23695.66;5074002;28;20235;-74
2022/03/20 03:15:37;;;;;;;34.30;17.27;;;;;;;-4.20;100.00;-23695.94;5056604;28;20595;-74
2022/03/20 03:18:03;;;;;;;31.07;16.03;;;;;;;-3.98;100.00;-23702.13;5073779;28;20275;-75
2022/03/20 03:20:28;;;;;;;27.20;14.53;;;;;;;-3.97;100.00;-23702.41;5056137;28;20622;-74
2022/03/20 03:22:54;;;;;;;27.03;14.77;;;;;;;-3.91;100.00;-23704.13;5073474;28;20166;-74
2022/03/20 03:25:21;;;;;;;26.00;14.10;;;;;;;-4.28;100.00;-23693.47;5057237;28;20209;-74
2022/03/20 03:27:46;;;;;;;21.63;12.90;;;;;;;-4.26;100.00;-23694.19;5088077;28;20184;-73
2022/03/20 03:30:15;;;;;;;23.07;12.03;;;;;;;-4.13;100.00;-23697.81;5063808;28;20182;-73
2022/03/20 03:32:42;;;;;;;21.53;12.47;;;;;;;-4.32;100.00;-23692.47;5075770;28;20639;-73
2022/03/20 03:37:53;;;;;;;22.63;10.17;;;;;;;-3.75;100.00;-23708.75;5073516;28;20619;-74
2022/03/20 03:40:18;;;;;;;20.57;10.50;;;;;;;-3.97;100.00;-23702.25;5055188;28;20202;-73
2022/03/20 03:42:44;;;;;;;19.40;11.07;;;;;;;-4.36;100.00;-23691.31;5073631;28;20170;-74
2022/03/20 03:45:10;;;;;;;18.97;11.07;;;;;;;-3.75;100.00;-23708.59;5055840;28;20260;-74
2022/03/20 03:47:35;;;;;;;18.50;11.43;;;;;;;-3.64;100.00;-23711.91;5073502;28;20175;-74
2022/03/20 03:50:01;;;;;;;19.90;11.03;;;;;;;-4.02;100.00;-23700.97;5055329;28;20185;-74
2022/03/20 03:52:27;;;;;;;20.63;11.93;;;;;;;-3.74;100.00;-23708.88;5067004;28;20322;-74
2022/03/20 03:54:52;;;;;;;25.63;12.77;;;;;;;-3.75;100.00;-23708.59;5059811;28;20182;-74
2022/03/20 03:57:19;;;;;;;26.20;13.03;;;;;;;-4.28;100.00;-23693.47;5073132;28;20569;-74
2022/03/20 03:59:44;;;;;;;24.67;12.17;;;;;;;-4.39;100.00;-23690.31;5090622;28;20635;-74
2022/03/20 04:02:10;;;;;;;24.43;12.13;;;;;;;-4.31;100.00;-23692.75;5076201;28;20186;-74
2022/03/20 04:04:36;;;;;;;23.30;12.33;;;;;;;-3.94;100.00;-23703.28;5068122;28;20190;-74
2022/03/20 04:07:03;;;;;;;26.80;14.33;;;;;;;-4.22;100.00;-23695.22;5081853;28;20181;-73
2022/03/20 04:09:29;;;;;;;31.70;14.33;;;;;;;-4.26;100.00;-23694.06;5092704;28;20252;-73
2022/03/20 04:11:56;;;;;;;26.50;13.70;;;;;;;-4.08;100.00;-23699.38;5078513;28;20225;-74
2022/03/20 04:14:21;;;;;;;23.03;13.20;;;;;;;-4.14;100.00;-23697.50;5072292;28;20593;-74
2022/03/20 04:16:48;;;;;;;29.27;16.77;;;;;;;-4.15;100.00;-23697.22;5054532;28;20192;-74
2022/03/20 04:19:13;;;;;;;33.67;17.90;;;;;;;-4.23;100.00;-23694.91;5072776;28;20166;-74
2022/03/20 04:21:39;;;;;;;34.80;18.53;;;;;;;-4.51;100.00;-23687.16;5072282;28;20178;-74
2022/03/20 04:24:05;;;;;;;30.67;16.93;;;;;;;-4.15;100.00;-23697.22;5072364;28;20596;-74
2022/03/20 04:26:33;;;;;;;33.60;17.27;;;;;;;-4.43;100.00;-23689.16;5072332;28;20729;-74
2022/03/20 04:28:58;;;;;;;35.37;17.10;;;;;;;-4.18;100.00;-23696.34;5072816;28;20579;-73
2022/03/20 04:31:23;;;;;;;31.20;16.83;;;;;;;-4.30;100.00;-23692.91;5072201;28;20683;-73
2022/03/20 04:33:54;;;;;;;28.07;16.30;;;;;;;-4.23;100.00;-23694.91;5072250;28;20625;-74
2022/03/20 04:36:24;;;;;;;23.27;14.40;;;;;;;-4.67;100.00;-23682.53;5054291;28;20182;-74
2022/03/20 04:38:52;;;;;;;31.43;15.50;;;;;;;-4.64;100.00;-23683.25;5080972;28;20252;-74
2022/03/20 04:41:18;;;;;;;26.10;13.77;;;;;;;-4.71;100.00;-23681.22;5080383;28;20174;-74
2022/03/20 04:43:47;;;;;;;28.23;14.03;;;;;;;-4.17;100.00;-23696.66;5086780;28;20180;-74
2022/03/20 04:46:12;;;;;;;25.03;14.60;;;;;;;-4.51;100.00;-23687.16;5092513;28;20225;-74
2022/03/20 04:59:33;;;;;;;26.77;14.87;;;;;;;-4.00;100.00;-23701.53;5071625;28;20234;-73
2022/03/20 05:01:59;;;;;;;25.83;13.80;;;;;;;-3.63;100.00;-23712.03;5071850;28;20170;-73
2022/03/20 05:04:24;;;;;;;21.77;12.50;;;;;;;-3.50;100.00;-23715.63;5053776;28;20174;-74
2022/03/20 05:06:50;;;;;;;16.67;10.73;;;;;;;-3.40;100.00;-23718.66;5089456;28;20187;-74
2022/03/20 05:14:45;;;;;;;19.47;10.13;;;;;;;-2.85;100.00;-23734.34;5042427;28;20236;-74
2022/03/20 05:17:10;;;;;;;18.43;10.47;;;;;;;-3.05;100.00;-23728.59;5090897;28;20622;-73
2022/03/20 05:19:42;;;;;;;15.07;9.27;;;;;;;-2.58;100.00;-23741.81;5070845;28;20183;-74
2022/03/20 05:22:12;;;;;;;15.10;9.07;;;;;;;-2.88;100.00;-23733.47;5089098;28;20194;-73
2022/03/20 05:24:40;;;;;;;14.00;8.63;;;;;;;-2.77;100.00;-23736.63;5067145;28;20587;-74
2022/03/20 05:27:06;;;;;;;14.47;8.67;;;;;;;-2.72;98.13;-23737.94;5088153;28;20184;-72
2022/03/20 05:29:32;;;;;;;18.13;8.53;;;;;;;-2.38;98.58;-23747.56;5089797;28;20219;-73
2022/03/20 05:32:00;;;;;;;13.97;9.27;;;;;;;-1.97;97.79;-23759.19;5089029;28;20258;-74
2022/03/20 05:34:26;;;;;;;17.37;8.77;;;;;;;-2.06;97.65;-23756.75;5089383;28;20174;-73
2022/03/20 05:36:52;;;;;;;15.17;9.13;;;;;;;-1.97;97.41;-23759.31;5070493;28;20644;-73
2022/03/20 05:39:17;;;;;;;15.47;8.27;;;;;;;-1.54;96.56;-23771.38;5070282;28;20185;-74
2022/03/20 05:41:46;;;;;;;14.53;9.10;;;;;;;-1.39;95.89;-23775.84;5070531;28;20189;-75
2022/03/20 05:44:12;;;;;;;16.13;9.10;;;;;;;-1.35;93.97;-23776.84;5089060;28;20203;-74
2022/03/20 05:46:40;;;;;;;14.67;8.70;;;;;;;-0.98;92.15;-23787.44;5088660;28;20182;-74
2022/03/20 05:49:06;;;;;;;14.17;8.70;;;;;;;-1.25;92.48;-23779.72;5089747;28;20268;-73
2022/03/20 05:51:34;;;;;;;14.33;8.63;;;;;;;-0.97;90.30;-23787.59;5070165;28;20205;-73
2022/03/20 05:54:00;;;;;;;15.23;9.17;;;;;;;-1.01;91.55;-23786.59;5089018;28;20270;-74
2022/03/20 05:59:09;;;;;;;14.80;9.30;;;;;;;-0.18;88.82;-23810.09;5086895;28;20205;-75
2022/03/20 06:01:34;;;;;;;13.87;8.93;;;;;;;-0.19;87.90;-23809.81;5089043;28;20635;-76
2022/03/20 06:04:00;;;;;;;14.53;9.30;;;;;;;0.16;82.62;-23819.69;5089169;28;20185;-75
2022/03/20 06:06:26;;;;;;;17.20;9.47;;;;;;;0.19;80.45;-23820.53;5088673;28;20254;-74
2022/03/20 06:08:52;;;;;;;14.57;8.57;;;;;;;0.25;78.42;-23822.25;5089917;28;20186;-74
2022/03/20 06:11:17;;;;;;;14.77;8.90;;;;;;;0.15;76.66;-23819.25;5088439;28;20234;-73
2022/03/20 06:13:45;;;;;;;15.17;8.67;;;;;;;0.35;78.04;-23825.13;5088268;28;20180;-74
2022/03/20 06:16:12;;;;;;;13.90;8.30;;;;;;;0.64;77.96;-23833.28;5070021;28;20185;-74
2022/03/20 06:18:39;;;;;;;18.67;8.83;;;;;;;0.78;76.40;-23837.28;5086662;28;20328;-74
2022/03/20 06:21:06;;;;;;;13.33;8.63;;;;;;;0.87;76.47;-23839.72;5088889;28;20180;-74
2022/03/20 06:23:32;;;;;;;14.50;7.57;;;;;;;1.24;75.39;-23850.16;5089343;28;20176;-75
2022/03/20 06:25:57;;;;;;;10.83;7.57;;;;;;;1.43;71.21;-23855.47;5087636;28;20177;-76
2022/03/20 06:28:23;;;;;;;13.67;8.70;;;;;;;1.19;69.32;-23848.75;5088712;28;20181;-73
2022/03/20 06:30:48;;;;;;;14.93;8.80;;;;;;;1.52;69.88;-23858.16;5069787;28;20304;-77
2022/03/20 06:33:15;;;;;;;16.50;9.20;;;;;;;1.87;68.22;-23868.03;5088212;28;20620;-73
2022/03/20 06:35:41;;;;;;;15.30;8.87;;;;;;;1.73;68.64;-23864.03;5088693;28;20634;-73
2022/03/20 06:38:07;;;;;;;14.43;8.50;;;;;;;2.25;68.77;-23878.59;5087346;28;20257;-73
2022/03/20 06:40:33;;;;;;;15.73;7.90;;;;;;;2.08;63.07;-23873.88;5086490;28;20943;-72
2022/03/20 06:42:59;;;;;;;13.93;8.60;;;;;;;1.80;60.87;-23865.88;5086405;28;20195;-73
2022/03/20 06:45:24;;;;;;;12.13;8.50;;;;;;;2.17;61.46;-23876.59;5069370;28;20179;-73
2022/03/20 06:47:50;;;;;;;12.87;8.30;;;;;;;1.06;61.73;-23845.16;5092855;28;20185;-73
2022/03/20 06:50:16;;;;;;;14.13;8.57;;;;;;;2.28;62.89;-23879.44;5091614;28;20681;-73
2022/03/20 06:52:42;;;;;;;13.50;8.67;;;;;;;2.33;61.87;-23881.03;5092472;28;20263;-72
2022/03/20 06:55:12;;;;;;;15.77;9.00;;;;;;;2.49;61.03;-23885.59;5091535;28;20274;-73
2022/03/20 06:57:40;;;;;;;13.40;8.53;;;;;;;2.63;61.66;-23889.59;5091129;28;20187;-74
2022/03/20 07:00:06;;;;;;;15.83;9.97;;;;;;;2.70;60.95;-23891.31;5091028;28;20183;-74
2022/03/20 07:02:32;;;;;;;14.43;8.90;;;;;;;2.93;60.04;-23897.88;5088746;28;20657;-74
2022/03/20 07:04:57;;;;;;;14.43;9.63;;;;;;;2.65;60.04;-23890.16;5092240;28;20694;-73
2022/03/20 07:07:23;;;;;;;14.90;9.30;;;;;;;2.86;60.88;-23895.88;5091508;28;20258;-73
2022/03/20 07:09:49;;;;;;;14.43;9.53;;;;;;;3.68;59.08;-23918.97;5091757;28;20232;-73
2022/03/20 07:12:14;;;;;;;17.47;9.90;;;;;;;3.75;57.78;-23920.97;5090550;28;20216;-72
2022/03/20 07:14:41;;;;;;;13.33;9.13;;;;;;;3.36;57.63;-23910.13;5087736;28;20264;-73
2022/03/20 07:17:13;;;;;;;13.70;8.90;;;;;;;3.60;56.77;-23916.84;5085510;28;20185;-74
2022/03/20 07:19:42;;;;;;;14.33;9.33;;;;;;;3.84;57.38;-23923.66;5084988;28;20204;-74
2022/03/20 07:22:09;;;;;;;13.37;8.93;;;;;;;3.66;56.91;-23918.53;5066067;28;20197;-74
2022/03/20 07:24:35;;;;;;;15.07;9.30;;;;;;;4.07;55.26;-23929.94;5061084;28;20188;-73
2022/03/20 07:29:46;;;;;;;13.83;8.33;;;;;;;4.24;52.30;-23934.91;5083325;28;20181;-75
2022/03/20 07:32:11;;;;;;;11.63;7.60;;;;;;;4.00;49.26;-23928.22;5084123;28;20197;-74
2022/03/20 07:34:39;;;;;;;13.67;7.63;;;;;;;3.78;49.76;-23921.97;5086231;28;20188;-74
2022/03/20 07:37:05;;;;;;;12.77;7.60;;;;;;;4.20;51.55;-23933.78;5065259;28;20177;-74
2022/03/20 07:39:32;;;;;;;14.90;8.00;;;;;;;3.91;48.37;-23925.66;5066136;28;20192;-74
2022/03/20 07:41:58;;;;;;;10.83;7.40;;;;;;;4.23;47.33;-23934.63;5083303;28;20185;-72
2022/03/20 07:44:25;;;;;;;10.30;7.43;;;;;;;3.88;47.76;-23924.81;5084526;28;20211;-75
2022/03/20 07:46:54;;;;;;;14.10;8.53;;;;;;;4.08;48.63;-23930.22;5082598;28;20709;-74
2022/03/20 07:49:20;;;;;;;12.10;7.10;;;;;;;4.18;47.45;-23933.06;5084212;28;20265;-74
2022/03/20 07:51:46;;;;;;;11.20;7.53;;;;;;;4.16;47.96;-23932.63;5084679;28;20684;-73
2022/03/20 07:54:12;;;;;;;12.33;8.07;;;;;;;4.12;48.37;-23931.34;5083103;28;20558;-74
2022/03/20 07:56:38;;;;;;;11.07;7.33;;;;;;;4.51;47.21;-23942.31;5083746;28;20306;-73
2022/03/20 07:59:07;;;;;;;10.47;6.87;;;;;;;4.36;46.97;-23938.34;5084202;28;20272;-73
2022/03/20 08:01:36;;;;;;;10.37;7.17;;;;;;;4.49;47.03;-23941.75;5083271;28;20268;-73
2022/03/20 08:04:03;;;;;;;11.93;6.67;;;;;;;4.73;47.18;-23948.59;5084086;28;20212;-73
2022/03/20 08:06:29;;;;;;;10.10;7.20;;;;;;;4.93;46.61;-23954.28;5083336;28;20188;-74
2022/03/20 08:08:59;;;;;;;11.27;6.80;;;;;;;5.14;45.17;-23960.09;5083390;28;20648;-72
2022/03/20 08:11:28;;;;;;;8.17;5.80;;;;;;;4.66;42.96;-23946.59;5075660;28;20217;-74
2022/03/20 08:13:54;;;;;;;9.50;5.40;;;;;;;5.15;42.28;-23960.53;5082545;28;20173;-73
2022/03/20 08:16:22;;;;;;;7.00;5.70;;;;;;;5.38;41.87;-23966.94;5084798;28;20257;-74
2022/03/20 08:18:48;;;;;;;7.67;5.50;;;;;;;5.22;41.25;-23962.53;5085695;28;20216;-73
2022/03/20 08:21:14;;;;;;;7.77;5.80;;;;;;;5.06;40.78;-23957.97;5066329;28;20185;-74
2022/03/20 08:23:40;;;;;;;9.93;6.60;;;;;;;5.15;40.55;-23960.53;5066453;28;20188;-73
2022/03/20 08:26:08;;;;;;;14.27;6.60;;;;;;;4.93;40.71;-23954.28;5083853;28;20181;-74
2022/03/20 08:28:37;;;;;;;8.67;5.60;;;;;;;5.66;39.87;-23974.75;5082815;28;20236;-76
2022/03/20 08:31:03;;;;;;;13.10;6.17;;;;;;;5.61;39.65;-23973.47;5063730;28;20291;-75
2022/03/20 08:33:30;;;;;;;8.43;5.60;;;;;;;5.69;39.96;-23975.75;5083391;28;20201;-73
2022/03/20 08:35:56;;;;;;;13.20;5.93;;;;;;;5.92;40.54;-23982.16;5083358;28;20180;-76
2022/03/20 08:38:21;;;;;;;7.80;5.43;;;;;;;5.66;39.29;-23974.75;5064698;28;20264;-76
2022/03/20 08:40:47;;;;;;;10.20;5.87;;;;;;;6.15;38.12;-23988.69;5084193;28;20205;-75
2022/03/20 08:43:15;;;;;;;7.47;5.30;;;;;;;6.32;37.31;-23993.22;5064401;28;20664;-75
2022/03/20 08:45:41;;;;;;;7.57;5.30;;;;;;;6.21;37.38;-23990.38;5065884;28;20538;-75
2022/03/20 08:48:07;;;;;;;7.10;5.30;;;;;;;6.57;36.96;-24000.31;5065528;28;20562;-75
2022/03/20 08:50:36;;;;;;;8.70;5.73;;;;;;;6.34;35.10;-23993.78;5064174;28;20169;-76
2022/03/20 08:53:02;;;;;;;9.30;5.67;;;;;;;6.20;36.19;-23989.97;5085506;28;20185;-75
2022/03/20 08:55:33;;;;;;;10.27;5.70;;;;;;;6.66;35.20;-24002.88;5086008;28;20179;-75
2022/03/20 08:57:59;;;;;;;8.67;5.33;;;;;;;6.81;34.16;-24007.13;5066503;28;20177;-75
2022/03/20 09:00:25;;;;;;;11.53;6.20;;;;;;;6.65;35.22;-24002.72;5084937;28;20185;-75
2022/03/20 09:02:52;;;;;;;7.33;5.57;;;;;;;6.68;35.68;-24003.31;5065960;28;20169;-76
2022/03/20 09:05:21;;;;;;;7.93;5.70;;;;;;;6.73;35.09;-24004.88;5082663;28;20672;-75
2022/03/20 09:07:48;;;;;;;17.23;5.90;;;;;;;6.66;35.98;-24002.88;5077084;28;20205;-74
2022/03/20 09:10:15;;;;;;;11.27;6.27;;;;;;;6.39;36.17;-23995.34;5082428;28;20217;-77
2022/03/20 09:12:45;;;;;;;6.97;5.70;;;;;;;6.69;36.06;-24003.72;5064359;28;20197;-77
2022/03/20 09:15:16;;;;;;;8.63;5.57;;;;;;;6.93;35.54;-24010.53;5065356;28;20185;-76
2022/03/20 09:20:29;;;;;;;10.47;5.90;;;;;;;6.68;34.24;-24003.44;5081924;28;20235;-76
2022/03/20 09:22:55;;;;;;;8.77;5.90;;;;;;;7.09;35.12;-24015.06;5067189;28;20216;-75
2022/03/20 09:25:21;;;;;;;8.37;5.57;;;;;;;7.36;34.50;-24022.44;5082580;28;20242;-75
2022/03/20 09:27:51;;;;;;;9.80;6.00;;;;;;;7.72;35.09;-24032.50;5081973;28;20181;-76
2022/03/20 09:30:18;;;;;;;10.03;5.73;;;;;;;7.69;34.62;-24031.81;5063664;28;20186;-75
2022/03/20 09:32:44;;;;;;;9.60;6.13;;;;;;;7.70;34.17;-24032.09;5082551;28;20205;-74
2022/03/20 09:35:10;;;;;;;9.03;5.93;;;;;;;7.61;34.18;-24029.41;5063440;28;20620;-73
2022/03/20 09:37:36;;;;;;;8.83;6.00;;;;;;;8.16;34.72;-24044.97;5083523;28;20211;-74
2022/03/20 09:40:03;;;;;;;7.70;5.67;;;;;;;8.14;34.11;-24044.28;5082111;28;20616;-74
2022/03/20 09:42:29;;;;;;;8.50;5.70;;;;;;;7.21;33.54;-24018.34;5081999;28;20185;-74
2022/03/20 09:44:55;;;;;;;10.67;5.50;;;;;;;7.32;34.20;-24021.31;5083028;28;20197;-75
2022/03/20 09:47:23;;;;;;;8.33;5.80;;;;;;;7.28;33.81;-24020.31;5066248;28;20264;-76
2022/03/20 09:49:49;;;;;;;11.93;6.07;;;;;;;7.48;34.25;-24026.00;5082965;28;20272;-76
2022/03/20 09:52:19;;;;;;;8.20;5.67;;;;;;;7.33;33.48;-24021.59;5081744;28;20247;-75
2022/03/20 09:54:44;;;;;;;9.40;5.80;;;;;;;7.62;33.83;-24029.81;5063599;28;20522;-74
2022/03/20 09:57:10;;;;;;;8.57;5.57;;;;;;;7.20;33.16;-24018.06;5082492;28;20227;-75
2022/03/20 09:59:38;;;;;;;8.67;5.27;;;;;;;6.85;34.44;-24008.25;5063800;28;20191;-75
2022/03/20 10:02:11;;;;;;;8.67;5.67;;;;;;;7.36;34.20;-24022.59;5082116;28;20216;-74
2022/03/20 10:04:57;;;;;;;9.63;5.77;;;;;;;7.65;33.88;-24030.66;5064926;28;20690;-74
2022/03/20 10:07:24;;;;;;;8.70;6.00;;;;;;;7.83;34.44;-24035.78;5082038;28;20191;-75
2022/03/20 10:10:29;;;;;;;8.63;5.73;;;;;;;7.71;33.13;-24032.22;5063567;28;20213;-75
2022/03/20 10:12:59;;;;;;;9.70;5.80;;;;;;;7.19;34.54;-24017.63;4981538;28;20326;-74
2022/03/20 10:15:37;;;;;;;10.30;5.40;;;;;;;8.01;33.49;-24040.72;4980420;28;20189;-75
2022/03/20 10:18:18;;;;;;;7.83;5.60;;;;;;;7.92;32.10;-24038.31;5039508;28;20193;-75
2022/03/20 10:20:52;;;;;;;9.40;5.87;;;;;;;7.82;32.83;-24035.34;5066687;28;20615;-75
2022/03/20 10:23:33;;;;;;;8.03;5.87;;;;;;;7.10;32.72;-24015.34;5087104;28;20179;-74
2022/03/20 10:26:03;;;;;;;7.03;5.23;;;;;;;6.95;33.09;-24010.97;5086912;28;20216;-74
2022/03/20 10:28:43;;;;;;;6.57;5.20;;;;;;;8.13;32.63;-24044.00;5086301;28;20590;-75
2022/03/20 10:31:11;;;;;;;8.10;5.50;;;;;;;8.35;32.48;-24050.22;5086449;28;20262;-74
2022/03/20 10:33:40;;;;;;;8.10;5.40;;;;;;;8.00;32.16;-24040.59;5086151;28;20179;-74
2022/03/20 10:36:21;;;;;;;8.20;5.43;;;;;;;7.03;32.77;-24013.22;5086079;28;20268;-74
2022/03/20 10:38:49;;;;;;;7.87;4.57;;;;;;;6.69;33.49;-24003.59;5085360;28;20592;-75
2022/03/20 10:41:26;;;;;;;7.07;4.87;;;;;;;7.06;32.61;-24014.22;5086809;28;20273;-75
2022/03/20 10:43:54;;;;;;;6.33;4.70;;;;;;;7.48;32.08;-24026.00;5086401;28;20272;-75
2022/03/20 10:46:24;;;;;;;9.23;4.87;;;;;;;7.93;31.41;-24038.47;5086037;28;20229;-76
2022/03/20 10:49:05;;;;;;;8.60;4.70;;;;;;;7.66;32.22;-24030.94;5066988;28;20319;-75
2022/03/20 10:51:39;;;;;;;8.17;4.97;;;;;;;7.38;31.94;-24023.00;5086696;28;20232;-75
2022/03/20 10:54:13;;;;;;;6.63;5.00;;;;;;;7.96;31.31;-24039.31;5089510;28;20189;-74
2022/03/20 10:56:59;;;;;;;5.77;4.40;;;;;;;7.60;32.20;-24029.09;5091741;28;20189;-75
2022/03/20 10:59:27;;;;;;;8.43;4.63;;;;;;;7.30;32.35;-24020.88;5091279;28;20181;-74
2022/03/20 11:01:53;;;;;;;6.80;4.80;;;;;;;7.16;32.27;-24016.78;5092721;28;20227;-75
2022/03/20 11:04:21;;;;;;;7.40;5.17;;;;;;;7.34;32.57;-24021.88;5093153;28;20371;-75
2022/03/20 11:06:48;;;;;;;7.30;5.00;;;;;;;7.72;32.79;-24032.66;5067913;28;20189;-74
2022/03/20 11:09:15;;;;;;;9.37;4.90;;;;;;;7.77;30.74;-24034.06;5091811;28;20229;-74
2022/03/20 11:11:51;;;;;;;6.73;4.80;;;;;;;8.43;30.27;-24052.63;5092028;28;20197;-74
2022/03/20 11:14:25;;;;;;;9.50;5.17;;;;;;;7.92;30.24;-24038.31;5089211;28;20644;-75
2022/03/20 11:17:02;;;;;;;7.70;5.13;;;;;;;7.14;30.67;-24016.34;5091448;28;20220;-74
2022/03/20 11:19:30;;;;;;;10.80;4.93;;;;;;;7.02;30.88;-24012.94;5074723;28;20177;-74
2022/03/20 11:22:09;;;;;;;6.43;4.70;;;;;;;7.10;30.55;-24015.34;5075603;28;20197;-74
2022/03/20 11:24:36;;;;;;;7.60;4.60;;;;;;;7.25;30.73;-24019.34;5058300;28;20221;-74
2022/03/20 11:27:04;;;;;;;7.07;4.53;;;;;;;7.64;31.04;-24030.38;5075522;28;20208;-74
2022/03/20 11:29:39;;;;;;;6.97;4.90;;;;;;;7.54;30.30;-24027.69;5093724;28;20188;-74
2022/03/20 11:32:08;;;;;;;5.97;4.53;;;;;;;7.91;31.10;-24038.03;5092558;28;20196;-74
2022/03/20 11:34:34;;;;;;;7.30;4.97;;;;;;;8.03;30.16;-24041.16;5073760;28;20189;-75
2022/03/20 11:37:10;;;;;;;7.63;4.60;;;;;;;7.85;30.41;-24036.19;5075081;28;20561;-75
2022/03/20 11:39:38;;;;;;;8.33;5.30;;;;;;;8.04;30.66;-24041.44;5074405;28;20189;-75
2022/03/20 11:42:28;;;;;;;7.30;5.00;;;;;;;8.20;31.01;-24045.97;5091644;28;20678;-74
2022/03/20 11:44:59;;;;;;;8.83;4.50;;;;;;;7.93;30.00;-24038.59;5073712;28;20206;-73
2022/03/20 11:47:30;;;;;;;7.27;4.57;;;;;;;8.13;30.22;-24044.00;5081076;28;20169;-74
2022/03/20 11:50:25;;;;;;;7.93;4.73;;;;;;;8.64;29.73;-24058.44;5091994;28;20224;-75
2022/03/20 11:53:05;;;;;;;8.63;5.10;;;;;;;8.64;28.95;-24058.44;5078191;28;20177;-75